createdAt,value
2018-07-22T00:03:36.506Z,82.30
2018-07-22T00:08:29.711Z,82.40
2018-07-22T00:13:22.917Z,82.30
2018-07-22T00:18:16.165Z,83.20
2018-07-22T00:23:09.425Z,82.50
2018-07-22T00:28:02.634Z,82.40
2018-07-22T00:32:55.907Z,82.30
2018-07-22T00:37:49.146Z,82.40
2018-07-22T00:42:42.377Z,82.40
2018-07-22T00:47:35.584Z,82.30
2018-07-22T00:52:28.842Z,82.00
2018-07-22T00:57:22.053Z,81.90
2018-07-22T01:02:15.272Z,81.60
2018-07-22T01:07:08.513Z,81.20
2018-07-22T01:16:54.975Z,81.30
2018-07-22T01:21:48.267Z,82.50
2018-07-22T01:26:41.488Z,81.70
2018-07-22T01:31:34.729Z,81.40
2018-07-22T01:36:27.935Z,81.20
2018-07-22T01:41:21.209Z,81.40
2018-07-22T01:46:14.545Z,81.60
2018-07-22T01:51:08.203Z,82.00
2018-07-22T01:56:01.435Z,82.00
2018-07-22T02:00:54.707Z,81.90
2018-07-22T02:05:47.969Z,82.50
2018-07-22T02:10:41.236Z,82.60
2018-07-22T02:15:34.464Z,82.60
2018-07-22T02:30:14.086Z,84.00
2018-07-22T02:40:00.421Z,84.10
2018-07-22T02:49:46.792Z,84.90
2018-07-22T02:54:39.994Z,85.20
2018-07-22T02:59:33.238Z,85.40
2018-07-22T03:04:26.460Z,85.50
2018-07-22T03:09:19.819Z,85.70
2018-07-22T03:14:13.074Z,85.70
2018-07-22T03:19:07.093Z,85.80
2018-07-22T03:24:00.327Z,86.00
2018-07-22T03:28:53.897Z,85.90
2018-07-22T03:38:40.247Z,86.30
2018-07-22T03:48:26.630Z,86.90
2018-07-22T03:53:20.230Z,86.90
2018-07-22T04:03:07.087Z,87.60
2018-07-22T04:08:00.314Z,87.10
2018-07-22T04:12:53.545Z,86.80
2018-07-22T04:17:46.863Z,87.00
2018-07-22T04:22:40.096Z,87.10
2018-07-22T04:27:33.305Z,87.10
2018-07-22T04:32:26.539Z,86.70
2018-07-22T04:37:19.778Z,86.30
2018-07-22T04:42:13.024Z,85.90
2018-07-22T04:47:06.285Z,85.70
2018-07-22T04:51:59.508Z,85.70
2018-07-22T04:56:52.721Z,85.80
2018-07-22T05:01:45.971Z,85.50
2018-07-22T05:06:39.260Z,85.40
2018-07-22T05:11:32.498Z,85.00
2018-07-22T05:16:25.721Z,84.40
2018-07-22T05:21:18.977Z,84.20
2018-07-22T05:26:12.208Z,83.50
2018-07-22T05:31:05.485Z,83.60
2018-07-22T05:35:58.786Z,83.20
2018-07-22T05:40:52.073Z,83.10
2018-07-22T05:45:45.394Z,82.90
2018-07-22T06:00:24.930Z,79.70
2018-07-22T06:05:18.155Z,78.60
2018-07-22T06:10:11.459Z,79.00
2018-07-22T06:19:59.518Z,77.60
2018-07-22T06:24:52.802Z,76.30
2018-07-22T06:29:46.117Z,72.70
2018-07-22T06:34:39.459Z,70.70
2018-07-22T06:44:27.251Z,56.90
2018-07-22T06:49:20.872Z,52.70
2018-07-22T06:54:14.154Z,50.40
2018-07-22T06:59:07.429Z,51.70
2018-07-22T07:04:00.791Z,53.50
2018-07-22T07:08:54.027Z,50.70
2018-07-22T07:13:47.388Z,50.60
2018-07-22T07:18:41.059Z,51.90
2018-07-22T07:23:34.263Z,53.40
2018-07-22T07:33:20.659Z,53.70
2018-07-22T07:38:13.899Z,51.70
2018-07-22T07:43:07.266Z,49.70
2018-07-22T07:52:53.672Z,48.50
2018-07-22T07:57:46.857Z,46.70
2018-07-22T08:02:40.097Z,43.70
2018-07-22T08:07:33.304Z,42.10
2018-07-22T08:12:26.563Z,42.40
2018-07-22T08:17:19.846Z,40.00
2018-07-22T08:22:13.101Z,39.10
2018-07-22T08:27:06.407Z,38.80
2018-07-22T08:32:00.465Z,39.30
2018-07-22T08:36:53.747Z,38.50
2018-07-22T08:41:47.517Z,38.90
2018-07-22T08:46:45.167Z,39.20
2018-07-22T08:56:32.195Z,38.90
2018-07-22T09:01:29.980Z,37.80
2018-07-22T09:06:24.099Z,37.30
2018-07-22T09:16:10.463Z,36.80
2018-07-22T09:21:03.723Z,36.30
2018-07-22T09:25:56.951Z,35.70
2018-07-22T09:31:02.775Z,35.60
2018-07-22T09:36:11.045Z,35.00
2018-07-22T09:41:27.557Z,34.00
2018-07-22T09:52:00.200Z,35.00
2018-07-22T09:56:56.933Z,35.70
2018-07-22T10:01:53.509Z,35.30
2018-07-22T10:06:49.948Z,35.60
2018-07-22T10:11:44.090Z,36.10
2018-07-22T10:16:37.461Z,36.30
2018-07-22T10:21:30.791Z,37.00
2018-07-22T10:26:24.075Z,38.10
2018-07-22T10:31:17.353Z,39.50
2018-07-22T10:36:10.584Z,40.60
2018-07-22T10:41:03.860Z,41.00
2018-07-22T10:45:57.113Z,40.20
2018-07-22T10:55:43.615Z,41.30
2018-07-22T11:00:36.891Z,41.20
2018-07-22T11:05:30.150Z,41.10
2018-07-22T11:10:23.381Z,41.30
2018-07-22T11:15:16.590Z,41.20
2018-07-22T11:20:09.863Z,41.40
2018-07-22T11:25:03.130Z,40.50
2018-07-22T11:29:56.366Z,41.40
2018-07-22T11:34:50.709Z,40.10
2018-07-22T11:39:44.032Z,41.60
2018-07-22T11:44:41.003Z,41.90
2018-07-22T11:49:34.281Z,42.40
2018-07-22T11:54:27.497Z,41.60
2018-07-22T11:59:22.077Z,41.90
2018-07-22T12:04:15.520Z,41.90
2018-07-22T12:09:10.871Z,41.30
2018-07-22T12:14:04.193Z,41.30
2018-07-22T12:18:57.467Z,41.80
2018-07-22T12:23:50.715Z,41.50
2018-07-22T12:28:44.004Z,41.80
2018-07-22T12:33:37.245Z,42.00
2018-07-22T12:43:33.473Z,40.70
2018-07-22T12:48:26.712Z,40.10
2018-07-22T12:53:24.951Z,40.20
2018-07-22T12:58:18.247Z,40.00
2018-07-22T13:03:11.713Z,39.60
2018-07-22T13:08:19.456Z,39.80
2018-07-22T13:13:40.612Z,39.50
2018-07-22T13:18:33.985Z,40.30
2018-07-22T13:23:28.191Z,39.80
2018-07-22T13:28:22.183Z,38.90
2018-07-22T13:43:03.107Z,40.00
2018-07-22T13:47:56.418Z,39.70
2018-07-22T13:52:49.657Z,39.00
2018-07-22T13:57:42.869Z,38.30
2018-07-22T14:02:36.089Z,38.90
2018-07-22T14:07:29.347Z,38.40
2018-07-22T14:12:22.591Z,37.80
2018-07-22T14:17:15.889Z,37.90
2018-07-22T14:22:09.136Z,38.50
2018-07-22T14:27:02.355Z,39.10
2018-07-22T14:31:55.601Z,37.90
2018-07-22T14:36:48.839Z,37.40
2018-07-22T14:41:42.144Z,36.80
2018-07-22T14:46:35.691Z,36.90
2018-07-22T14:56:23.082Z,37.80
2018-07-22T15:01:16.336Z,37.70
2018-07-22T15:11:03.080Z,38.00
2018-07-22T15:15:56.354Z,38.90
2018-07-22T15:20:49.568Z,39.30
2018-07-22T15:25:42.796Z,40.20
2018-07-22T15:30:36.065Z,40.20
2018-07-22T15:35:29.299Z,40.00
2018-07-22T15:40:22.525Z,40.30
2018-07-22T15:45:15.792Z,40.70
2018-07-22T15:50:09.013Z,41.00
2018-07-22T15:55:02.282Z,42.80
2018-07-22T15:59:55.489Z,44.50
2018-07-22T16:04:48.749Z,46.50
2018-07-22T16:09:41.996Z,47.40
2018-07-22T16:19:28.396Z,48.80
2018-07-22T16:24:21.630Z,49.50
2018-07-22T16:29:14.874Z,49.50
2018-07-22T16:39:01.322Z,50.90
2018-07-22T16:48:47.656Z,51.40
2018-07-22T16:53:41.626Z,50.60
2018-07-22T16:58:34.849Z,51.20
2018-07-22T17:03:28.084Z,51.10
2018-07-22T17:08:21.299Z,51.60
2018-07-22T17:13:14.529Z,51.90
2018-07-22T17:18:07.725Z,51.80
2018-07-22T17:27:54.025Z,51.30
2018-07-22T17:32:47.245Z,51.50
2018-07-22T17:42:34.605Z,50.20
2018-07-22T17:47:28.916Z,50.20
2018-07-22T17:57:16.055Z,51.40
2018-07-22T18:02:09.705Z,51.70
2018-07-22T18:07:02.947Z,52.10
2018-07-22T18:16:49.269Z,53.50
2018-07-22T18:21:42.495Z,54.00
2018-07-22T18:26:35.745Z,54.20
2018-07-22T18:31:28.999Z,53.60
2018-07-22T18:41:15.365Z,54.80
2018-07-22T18:46:08.602Z,55.30
2018-07-22T18:51:02.231Z,55.80
2018-07-22T19:00:48.584Z,56.50
2018-07-22T19:05:41.885Z,56.80
2018-07-22T19:10:35.123Z,57.20
2018-07-22T19:15:28.361Z,57.20
2018-07-22T19:20:21.579Z,57.80
2018-07-22T19:25:14.871Z,58.00
2018-07-22T19:30:08.101Z,58.60
2018-07-22T19:39:54.433Z,59.30
2018-07-22T19:44:47.629Z,59.50
2018-07-22T19:49:40.908Z,59.80
2018-07-22T19:59:27.989Z,60.60
2018-07-22T20:04:21.279Z,61.10
2018-07-22T20:09:14.538Z,62.10
2018-07-22T20:14:07.796Z,62.80
2018-07-22T20:19:01.126Z,63.50
2018-07-22T20:23:54.388Z,63.70
2018-07-22T20:28:47.730Z,64.90
2018-07-22T20:33:40.944Z,65.10
2018-07-22T20:38:34.372Z,66.10
2018-07-22T20:48:20.795Z,67.80
2018-07-22T20:53:14.110Z,68.40
2018-07-22T20:58:08.110Z,68.50
2018-07-22T21:03:41.502Z,68.70
2018-07-22T21:08:34.706Z,66.70
2018-07-22T21:13:28.065Z,66.80
2018-07-22T21:18:21.348Z,66.80
2018-07-22T21:23:14.626Z,67.20
2018-07-22T21:28:07.985Z,66.40
2018-07-22T21:33:01.410Z,66.00
2018-07-22T21:42:47.893Z,66.20
2018-07-22T21:47:41.130Z,67.10
2018-07-22T21:52:34.322Z,67.60
2018-07-22T21:57:27.663Z,67.40
2018-07-22T22:02:21.084Z,67.90
2018-07-22T22:07:14.374Z,68.20
2018-07-22T22:12:08.293Z,68.60
2018-07-22T22:17:01.859Z,69.00
2018-07-22T22:26:48.169Z,69.90
2018-07-22T22:31:42.042Z,70.40
2018-07-22T22:36:35.751Z,70.90
2018-07-22T22:41:29.075Z,71.30
2018-07-22T22:46:22.322Z,71.70
2018-07-22T22:56:08.669Z,72.70
2018-07-22T23:05:55.084Z,74.00
2018-07-22T23:10:48.375Z,74.50
2018-07-22T23:15:42.125Z,75.10
2018-07-22T23:20:35.371Z,75.80
2018-07-22T23:25:28.633Z,76.20
2018-07-22T23:35:15.223Z,77.20
2018-07-22T23:40:08.439Z,77.70
2018-07-22T23:45:01.659Z,78.00
2018-07-22T23:49:54.878Z,78.20
2018-07-22T23:54:48.093Z,79.50
2018-07-22T23:59:41.371Z,80.10
